createdAt,value
2023-01-05T00:00:56.286Z,5.90
2023-01-05T00:03:23.054Z,6.50
2023-01-05T00:05:49.733Z,5.70
2023-01-05T00:08:16.324Z,5.50
2023-01-05T00:11:02.262Z,6.27
2023-01-05T00:13:47.605Z,5.40
2023-01-05T00:16:33.672Z,4.90
2023-01-05T00:19:19.001Z,5.53
2023-01-05T00:22:04.377Z,7.47
2023-01-05T00:24:31.797Z,6.87
2023-01-05T00:26:58.364Z,6.33
2023-01-05T00:29:24.970Z,6.63
2023-01-05T00:31:51.458Z,5.30
2023-01-05T00:34:18.110Z,5.20
2023-01-05T00:36:44.723Z,5.57
2023-01-05T00:39:11.405Z,6.60
2023-01-05T00:41:38.221Z,4.43
2023-01-05T00:44:04.861Z,6.03
2023-01-05T00:46:31.504Z,6.03
2023-01-05T00:48:58.157Z,4.67
2023-01-05T00:51:24.789Z,5.00
2023-01-05T00:53:51.432Z,5.83
2023-01-05T00:56:18.025Z,5.60
2023-01-05T00:58:44.815Z,5.80
2023-01-05T01:01:12.537Z,4.40
2023-01-05T01:03:39.330Z,6.30
2023-01-05T01:06:06.122Z,5.37
2023-01-05T01:08:32.717Z,5.83
2023-01-05T01:11:04.312Z,6.67
2023-01-05T01:13:30.922Z,5.87
2023-01-05T01:15:58.098Z,5.87
2023-01-05T01:18:24.799Z,5.83
2023-01-05T01:20:51.315Z,7.53
2023-01-05T01:23:17.941Z,6.30
2023-01-05T01:25:44.678Z,6.37
2023-01-05T01:28:11.169Z,5.60
2023-01-05T01:30:39.550Z,6.63
2023-01-05T01:33:06.153Z,6.30
2023-01-05T01:35:32.758Z,6.20
2023-01-05T01:37:59.559Z,5.60
2023-01-05T01:40:26.149Z,6.50
2023-01-05T01:42:52.761Z,5.60
2023-01-05T01:45:21.705Z,5.30
2023-01-05T01:47:59.797Z,6.83
2023-01-05T01:50:29.485Z,5.50
2023-01-05T01:53:04.040Z,5.60
2023-01-05T01:55:31.524Z,5.97
2023-01-05T01:57:59.109Z,5.40
2023-01-05T02:00:25.812Z,6.10
2023-01-05T02:02:54.718Z,5.80
2023-01-05T02:05:24.148Z,5.60
2023-01-05T02:07:50.686Z,5.53
2023-01-05T02:10:19.389Z,5.60
2023-01-05T02:13:17.070Z,5.37
2023-01-05T02:15:54.744Z,5.27
2023-01-05T02:18:33.253Z,5.27
2023-01-05T02:21:26.203Z,6.80
2023-01-05T02:24:01.441Z,5.43
2023-01-05T02:26:46.941Z,6.27
2023-01-05T02:29:41.526Z,6.53
2023-01-05T02:32:40.879Z,6.10
2023-01-05T02:35:24.547Z,6.27
2023-01-05T02:37:59.456Z,6.27
2023-01-05T02:40:34.407Z,6.27
2023-01-05T02:43:02.277Z,6.00
2023-01-05T02:45:28.861Z,5.50
2023-01-05T02:47:55.316Z,5.97
2023-01-05T02:50:27.325Z,5.50
2023-01-05T02:53:03.665Z,5.27
2023-01-05T02:55:37.480Z,5.67
2023-01-05T02:58:12.406Z,4.83
2023-01-05T03:00:45.898Z,5.77
2023-01-05T03:03:40.094Z,6.07
2023-01-05T03:06:10.947Z,5.07
2023-01-05T03:08:41.038Z,6.00
2023-01-05T03:11:28.629Z,6.03
2023-01-05T03:13:59.796Z,5.67
2023-01-05T03:16:29.719Z,5.43
2023-01-05T03:19:15.949Z,6.03
2023-01-05T03:22:01.730Z,5.47
2023-01-05T03:24:47.577Z,5.23
2023-01-05T03:27:33.206Z,4.80
2023-01-05T03:30:18.532Z,6.33
2023-01-05T03:33:08.455Z,8.87
2023-01-05T03:35:40.037Z,5.03
2023-01-05T03:38:21.642Z,5.87
2023-01-05T03:40:52.096Z,5.83
2023-01-05T03:43:19.740Z,6.13
2023-01-05T03:45:52.973Z,5.57
2023-01-05T03:48:21.195Z,5.87
2023-01-05T03:50:48.032Z,5.90
2023-01-05T03:53:14.588Z,6.67
2023-01-05T03:55:42.142Z,6.43
2023-01-05T03:58:09.839Z,5.13
2023-01-05T04:00:36.407Z,6.03
2023-01-05T04:03:03.300Z,6.63
2023-01-05T04:05:30.417Z,6.80
2023-01-05T04:07:57.008Z,6.93
2023-01-05T04:10:23.522Z,7.17
2023-01-05T04:12:50.137Z,6.93
2023-01-05T04:15:16.973Z,7.30
2023-01-05T04:17:43.473Z,6.47
2023-01-05T04:20:10.731Z,6.70
2023-01-05T04:22:37.457Z,6.33
2023-01-05T04:25:04.327Z,6.53
2023-01-05T04:27:30.915Z,6.43
2023-01-05T04:29:58.366Z,6.97
2023-01-05T04:32:24.950Z,6.60
2023-01-05T04:34:51.419Z,7.23
2023-01-05T04:37:18.280Z,7.30
2023-01-05T04:39:45.142Z,7.47
2023-01-05T04:42:11.774Z,7.27
2023-01-05T04:44:38.245Z,6.90
2023-01-05T04:47:04.823Z,6.23
2023-01-05T04:49:31.479Z,7.97
2023-01-05T04:51:58.001Z,6.50
2023-01-05T04:54:24.638Z,7.03
2023-01-05T04:56:51.190Z,6.53
2023-01-05T04:59:17.727Z,7.73
2023-01-05T05:01:44.869Z,6.40
2023-01-05T05:04:11.835Z,7.73
2023-01-05T05:06:38.471Z,7.50
2023-01-05T05:09:05.107Z,7.30
2023-01-05T05:11:31.818Z,8.10
2023-01-05T05:13:58.333Z,8.47
2023-01-05T05:16:25.006Z,6.50
2023-01-05T05:18:51.561Z,7.90
2023-01-05T05:21:18.211Z,8.27
2023-01-05T05:23:45.839Z,7.13
2023-01-05T05:26:12.893Z,6.73
2023-01-05T05:28:39.616Z,7.07
2023-01-05T05:31:06.227Z,7.73
2023-01-05T05:33:32.923Z,7.27
2023-01-05T05:35:59.495Z,8.53
2023-01-05T05:38:26.060Z,7.07
2023-01-05T05:40:52.632Z,7.50
2023-01-05T05:43:19.220Z,7.07
2023-01-05T05:45:50.238Z,6.73
2023-01-05T05:48:18.424Z,7.47
2023-01-05T05:50:45.647Z,7.40
2023-01-05T05:53:12.387Z,7.37
2023-01-05T05:55:38.988Z,7.60
2023-01-05T05:58:05.760Z,6.53
2023-01-05T06:00:32.458Z,6.37
2023-01-05T06:02:59.168Z,6.23
2023-01-05T06:05:25.818Z,7.37
2023-01-05T06:07:52.989Z,6.87
2023-01-05T06:10:19.550Z,8.50
2023-01-05T06:12:46.591Z,8.83
2023-01-05T06:15:13.212Z,7.50
2023-01-05T06:17:40.003Z,7.23
2023-01-05T06:20:07.555Z,7.10
2023-01-05T06:22:34.289Z,7.73
2023-01-05T06:25:00.778Z,7.40
2023-01-05T06:27:27.860Z,7.20
2023-01-05T06:29:54.796Z,7.23
2023-01-05T06:32:21.423Z,7.93
2023-01-05T06:34:48.092Z,8.67
2023-01-05T06:37:15.103Z,8.63
2023-01-05T06:39:42.059Z,8.67
2023-01-05T06:42:08.824Z,7.80
2023-01-05T06:44:35.409Z,8.80
2023-01-05T06:47:02.420Z,9.00
2023-01-05T06:49:29.242Z,8.33
2023-01-05T06:51:55.756Z,8.60
2023-01-05T06:54:22.323Z,8.30
2023-01-05T06:56:48.814Z,9.33
2023-01-05T06:59:15.624Z,8.23
2023-01-05T07:01:42.402Z,8.80
2023-01-05T07:04:09.029Z,8.80
2023-01-05T07:06:36.256Z,9.20
2023-01-05T07:09:03.536Z,9.40
2023-01-05T07:11:30.138Z,9.97
2023-01-05T07:13:56.737Z,9.50
2023-01-05T07:16:23.325Z,9.07
2023-01-05T07:18:49.910Z,9.27
2023-01-05T07:21:16.575Z,9.37
2023-01-05T07:23:43.169Z,8.07
2023-01-05T07:26:09.850Z,9.70
2023-01-05T07:28:38.112Z,9.57
2023-01-05T07:31:05.089Z,8.87
2023-01-05T07:33:37.571Z,9.33
2023-01-05T07:36:06.532Z,8.97
2023-01-05T07:38:33.192Z,10.17
2023-01-05T07:41:00.744Z,7.90
2023-01-05T07:43:27.886Z,9.57
2023-01-05T07:45:59.212Z,9.07
2023-01-05T07:48:25.982Z,8.83
2023-01-05T07:50:52.750Z,10.73
2023-01-05T07:53:19.241Z,9.53
2023-01-05T07:55:55.403Z,9.43
2023-01-05T07:58:22.177Z,8.97
2023-01-05T08:00:48.946Z,7.60
2023-01-05T08:03:15.650Z,8.93
2023-01-05T08:05:42.217Z,8.30
2023-01-05T08:08:09.282Z,8.23
2023-01-05T08:10:39.085Z,10.00
2023-01-05T08:13:33.162Z,10.93
2023-01-05T08:16:00.493Z,11.57
2023-01-05T08:18:27.995Z,12.67
2023-01-05T08:20:57.148Z,11.60
2023-01-05T08:23:26.424Z,11.73
2023-01-05T08:25:54.277Z,12.67
2023-01-05T08:28:20.940Z,11.47
2023-01-05T08:30:47.700Z,11.87
2023-01-05T08:33:14.413Z,11.87
2023-01-05T08:35:42.183Z,11.40
2023-01-05T08:38:09.023Z,11.60
2023-01-05T08:40:37.628Z,10.80
2023-01-05T08:43:05.772Z,10.57
2023-01-05T08:45:33.034Z,11.37
2023-01-05T08:47:59.648Z,11.00
2023-01-05T08:50:26.148Z,12.40
2023-01-05T08:52:52.781Z,11.50
2023-01-05T08:55:19.381Z,10.47
2023-01-05T08:57:45.922Z,11.30
2023-01-05T09:00:13.429Z,9.73
2023-01-05T09:02:40.216Z,10.53
2023-01-05T09:05:07.168Z,11.57
2023-01-05T09:07:33.904Z,9.47
2023-01-05T09:10:00.455Z,9.10
2023-01-05T09:12:32.726Z,9.90
2023-01-05T09:14:59.886Z,9.27
2023-01-05T09:17:26.780Z,8.23
2023-01-05T09:19:53.672Z,8.50
2023-01-05T09:22:20.219Z,10.53
2023-01-05T09:24:46.722Z,10.47
2023-01-05T09:27:13.313Z,8.53
2023-01-05T09:29:40.029Z,10.13
2023-01-05T09:32:06.786Z,9.47
2023-01-05T09:34:33.651Z,10.10
2023-01-05T09:37:00.459Z,9.87
2023-01-05T09:39:27.189Z,9.83
2023-01-05T09:41:56.461Z,9.90
2023-01-05T09:44:37.771Z,9.67
2023-01-05T09:47:26.742Z,9.73
2023-01-05T09:49:53.860Z,10.40
2023-01-05T09:52:22.057Z,10.07
2023-01-05T09:54:49.052Z,11.43
2023-01-05T09:57:21.424Z,9.40
2023-01-05T10:00:03.955Z,10.33
2023-01-05T10:02:47.491Z,9.37
2023-01-05T10:05:14.859Z,9.10
2023-01-05T10:07:51.866Z,9.80
2023-01-05T10:10:30.432Z,13.13
2023-01-05T10:13:11.311Z,9.53
2023-01-05T10:15:44.438Z,9.40
2023-01-05T10:18:24.576Z,10.50
2023-01-05T10:21:14.266Z,9.20
2023-01-05T10:23:49.682Z,10.07
2023-01-05T10:26:51.022Z,10.57
2023-01-05T10:29:22.263Z,9.50
2023-01-05T10:32:47.571Z,9.63
2023-01-05T10:36:06.238Z,8.87
2023-01-05T10:39:06.248Z,9.50
2023-01-05T10:41:59.382Z,8.17
2023-01-05T10:44:40.643Z,9.23
2023-01-05T10:47:09.950Z,9.77
2023-01-05T10:49:37.156Z,9.83
2023-01-05T10:52:03.775Z,9.90
2023-01-05T10:54:41.520Z,10.27
2023-01-05T10:57:34.500Z,9.80
2023-01-05T11:00:18.061Z,10.27
2023-01-05T11:02:50.319Z,11.53
2023-01-05T11:05:33.700Z,11.97
2023-01-05T11:08:06.388Z,9.83
2023-01-05T11:10:35.235Z,10.03
2023-01-05T11:13:05.008Z,10.87
2023-01-05T11:15:33.807Z,9.20
2023-01-05T11:18:00.725Z,9.87
2023-01-05T11:20:29.204Z,10.37
2023-01-05T11:22:55.773Z,8.87
2023-01-05T11:25:29.321Z,9.83
2023-01-05T11:28:05.485Z,8.50
2023-01-05T11:30:33.532Z,8.90
2023-01-05T11:33:01.727Z,9.73
2023-01-05T11:35:34.216Z,9.30
2023-01-05T11:38:00.877Z,8.90
2023-01-05T11:40:30.854Z,9.07
2023-01-05T11:42:58.467Z,8.60
2023-01-05T11:45:28.596Z,8.60
2023-01-05T11:47:57.202Z,9.73
2023-01-05T11:50:25.650Z,8.93
2023-01-05T11:52:57.190Z,8.23
2023-01-05T11:55:30.572Z,8.60
2023-01-05T11:58:13.823Z,7.93
2023-01-05T12:01:20.867Z,8.43
2023-01-05T12:04:22.848Z,8.50
2023-01-05T12:07:02.117Z,7.83
2023-01-05T12:09:35.454Z,8.50
2023-01-05T12:12:37.833Z,6.80
2023-01-05T12:15:26.030Z,8.03
2023-01-05T12:18:07.985Z,7.47
2023-01-05T12:20:52.800Z,8.10
2023-01-05T12:23:59.372Z,7.53
2023-01-05T12:26:28.980Z,7.50
2023-01-05T12:33:52.475Z,7.30
2023-01-05T12:35:27.095Z,8.10
2023-01-05T12:38:11.785Z,8.60
2023-01-05T12:40:59.809Z,8.43
2023-01-05T12:44:00.336Z,7.40
2023-01-05T12:46:48.319Z,8.00
2023-01-05T12:49:21.024Z,7.87
2023-01-05T12:51:57.100Z,8.60
2023-01-05T12:54:44.399Z,7.87
2023-01-05T12:57:15.295Z,8.27
2023-01-05T13:00:08.085Z,7.53
2023-01-05T13:02:40.872Z,6.70
2023-01-05T13:05:10.390Z,7.03
2023-01-05T13:08:16.135Z,7.93
2023-01-05T13:10:52.029Z,6.80
2023-01-05T13:13:50.782Z,7.30
2023-01-05T13:16:26.160Z,7.07
2023-01-05T13:19:01.985Z,8.77
2023-01-05T13:21:29.114Z,7.80
2023-01-05T13:24:00.320Z,7.30
2023-01-05T13:26:26.990Z,7.23
2023-01-05T13:28:55.843Z,7.03
2023-01-05T13:31:49.361Z,6.73
2023-01-05T13:34:18.743Z,6.90
2023-01-05T13:37:10.431Z,6.60
2023-01-05T13:39:46.085Z,6.53
2023-01-05T13:42:21.962Z,5.67
2023-01-05T13:45:19.436Z,5.80
2023-01-05T13:47:56.424Z,4.97
2023-01-05T13:50:59.952Z,4.83
2023-01-05T13:53:27.682Z,5.80
2023-01-05T13:55:57.801Z,5.70
2023-01-05T13:58:38.814Z,6.07
2023-01-05T14:01:09.231Z,5.77
2023-01-05T14:03:39.759Z,6.27
2023-01-05T14:06:23.933Z,5.57
2023-01-05T14:09:02.133Z,5.50
2023-01-05T14:11:29.615Z,5.43
2023-01-05T14:14:20.451Z,5.43
2023-01-05T14:16:48.404Z,5.40
2023-01-05T14:19:20.264Z,5.20
2023-01-05T14:21:49.946Z,6.13
2023-01-05T14:27:07.727Z,5.67
2023-01-05T14:29:46.255Z,6.00
2023-01-05T14:32:32.107Z,6.00
2023-01-05T14:35:28.770Z,5.63
2023-01-05T14:38:02.447Z,5.87
2023-01-05T14:40:42.237Z,5.53
2023-01-05T14:43:33.914Z,5.03
2023-01-05T14:46:04.208Z,4.83
2023-01-05T14:48:37.122Z,5.70
2023-01-05T14:51:15.878Z,5.03
2023-01-05T14:53:45.313Z,5.83
2023-01-05T14:56:21.470Z,5.77
2023-01-05T14:59:12.624Z,5.30
2023-01-05T15:01:48.097Z,6.57
2023-01-05T15:04:20.908Z,5.93
2023-01-05T15:06:56.718Z,5.67
2023-01-05T15:09:38.633Z,5.83
2023-01-05T15:12:27.019Z,5.93
2023-01-05T15:15:06.071Z,5.63
2023-01-05T15:17:36.166Z,6.20
2023-01-05T15:20:17.878Z,6.40
2023-01-05T15:23:10.410Z,6.50
2023-01-05T15:26:08.215Z,6.60
2023-01-05T15:28:43.777Z,7.03
2023-01-05T15:31:37.253Z,6.50
2023-01-05T15:34:25.111Z,7.20
2023-01-05T15:36:54.889Z,7.40
2023-01-05T15:39:26.549Z,7.63
2023-01-05T15:41:55.332Z,6.93
2023-01-05T15:44:22.360Z,6.97
2023-01-05T15:46:49.649Z,6.83
2023-01-05T15:49:23.498Z,7.20
2023-01-05T15:51:52.390Z,7.93
2023-01-05T15:54:30.775Z,7.37
2023-01-05T15:56:59.433Z,6.97
2023-01-05T15:59:35.321Z,7.60
2023-01-05T16:02:02.289Z,6.80
2023-01-05T16:04:30.133Z,8.00
2023-01-05T16:07:02.425Z,6.83
2023-01-05T16:09:37.738Z,6.37
2023-01-05T16:12:10.361Z,6.73
2023-01-05T16:14:44.039Z,6.67
2023-01-05T16:17:14.236Z,6.87
2023-01-05T16:19:49.281Z,6.57
2023-01-05T16:22:28.051Z,6.23
2023-01-05T16:24:57.747Z,5.90
2023-01-05T16:27:25.989Z,5.90
2023-01-05T16:29:52.612Z,6.20
2023-01-05T16:32:54.786Z,6.07
2023-01-05T16:35:58.945Z,6.40
2023-01-05T16:38:30.216Z,6.70
2023-01-05T16:41:05.741Z,6.43
2023-01-05T16:43:41.112Z,6.63
2023-01-05T16:46:19.920Z,6.10
2023-01-05T16:48:52.336Z,6.50
2023-01-05T16:51:39.857Z,6.10
2023-01-05T16:54:16.792Z,6.00
2023-01-05T16:56:57.788Z,6.63
2023-01-05T16:59:44.561Z,6.27
2023-01-05T17:02:44.073Z,6.27
2023-01-05T17:05:14.145Z,6.40
2023-01-05T17:07:41.555Z,5.90
2023-01-05T17:10:15.977Z,6.83
2023-01-05T17:12:42.604Z,6.27
2023-01-05T17:15:18.491Z,7.10
2023-01-05T17:17:45.626Z,6.20
2023-01-05T17:20:13.466Z,6.17
2023-01-05T17:22:40.265Z,6.50
2023-01-05T17:25:09.974Z,6.87
2023-01-05T17:27:38.209Z,7.53
2023-01-05T17:30:13.264Z,7.07
2023-01-05T17:32:39.785Z,7.27
2023-01-05T17:37:38.806Z,6.10
2023-01-05T17:40:06.985Z,6.77
2023-01-05T17:42:43.171Z,7.70
2023-01-05T17:45:16.076Z,6.60
2023-01-05T17:47:43.319Z,7.17
2023-01-05T17:50:15.427Z,7.80
2023-01-05T17:52:42.222Z,6.80
2023-01-05T17:55:09.308Z,7.10
2023-01-05T17:57:35.897Z,6.63
2023-01-05T18:00:05.649Z,7.37
2023-01-05T18:02:32.840Z,6.27
2023-01-05T18:04:59.691Z,7.00
2023-01-05T18:07:26.297Z,6.63
2023-01-05T18:09:52.980Z,7.33
2023-01-05T18:12:19.536Z,7.03
2023-01-05T18:14:46.158Z,6.43
2023-01-05T18:17:13.395Z,8.33
2023-01-05T18:19:40.138Z,7.47
2023-01-05T18:22:07.150Z,7.13
2023-01-05T18:24:33.786Z,7.40
2023-01-05T18:27:00.917Z,7.20
2023-01-05T18:29:28.021Z,7.40
2023-01-05T18:31:54.776Z,6.43
2023-01-05T18:34:21.790Z,6.83
2023-01-05T18:36:55.607Z,6.30
2023-01-05T18:39:29.319Z,6.50
2023-01-05T18:41:56.956Z,6.03
2023-01-05T18:44:24.670Z,6.57
2023-01-05T18:46:51.189Z,6.23
2023-01-05T18:49:17.972Z,6.50
2023-01-05T18:51:44.824Z,6.23
2023-01-05T18:54:12.459Z,5.53
2023-01-05T18:56:39.521Z,6.57
2023-01-05T18:59:06.458Z,6.37
2023-01-05T19:01:35.970Z,4.90
2023-01-05T19:04:02.710Z,5.73
2023-01-05T19:06:29.547Z,5.80
2023-01-05T19:08:57.327Z,5.43
2023-01-05T19:11:26.090Z,5.27
2023-01-05T19:13:55.550Z,5.50
2023-01-05T19:16:24.096Z,5.47
2023-01-05T19:18:55.839Z,5.13
2023-01-05T19:21:25.255Z,4.80
2023-01-05T19:23:56.762Z,12.57
2023-01-05T19:26:23.985Z,4.83
2023-01-05T19:28:51.288Z,4.20
2023-01-05T19:31:19.221Z,5.20
2023-01-05T19:33:46.445Z,4.70
2023-01-05T19:36:15.669Z,4.50
2023-01-05T19:38:43.174Z,4.20
2023-01-05T19:41:12.984Z,4.87
2023-01-05T19:43:42.919Z,4.43
2023-01-05T19:46:12.438Z,3.90
2023-01-05T19:48:39.696Z,5.23
2023-01-05T19:51:09.847Z,4.20
2023-01-05T19:53:38.257Z,5.03
2023-01-05T19:56:15.432Z,5.67
2023-01-05T19:58:43.455Z,6.47
2023-01-05T20:01:16.600Z,6.07
2023-01-05T20:03:44.591Z,5.13
2023-01-05T20:06:18.436Z,6.00
2023-01-05T20:08:52.525Z,5.90
2023-01-05T20:11:35.761Z,6.33
2023-01-05T20:14:04.357Z,6.97
2023-01-05T20:16:31.452Z,7.03
2023-01-05T20:18:58.924Z,6.70
2023-01-05T20:21:25.747Z,6.43
2023-01-05T20:23:52.333Z,6.07
2023-01-05T20:26:21.371Z,6.47
2023-01-05T20:28:48.715Z,6.27
2023-01-05T20:31:32.909Z,6.67
2023-01-05T20:34:02.415Z,6.70
2023-01-05T20:36:29.459Z,6.17
2023-01-05T20:38:57.352Z,6.83
2023-01-05T20:41:26.576Z,6.80
2023-01-05T20:43:54.121Z,6.77
2023-01-05T20:46:28.384Z,7.00
2023-01-05T20:48:55.910Z,7.43
2023-01-05T20:51:22.925Z,7.23
2023-01-05T20:53:50.547Z,6.40
2023-01-05T20:56:20.884Z,6.03
2023-01-05T20:58:47.970Z,6.67
2023-01-05T21:01:15.541Z,6.10
2023-01-05T21:03:43.106Z,6.00
2023-01-05T21:06:11.594Z,5.73
2023-01-05T21:08:38.490Z,5.40
2023-01-05T21:11:06.765Z,5.40
2023-01-05T21:13:33.471Z,5.80
2023-01-05T21:16:05.141Z,5.83
2023-01-05T21:18:33.229Z,5.27
2023-01-05T21:20:59.930Z,5.37
2023-01-05T21:23:26.625Z,5.63
2023-01-05T21:26:06.449Z,5.97
2023-01-05T21:28:38.534Z,5.90
2023-01-05T21:31:07.284Z,5.47
2023-01-05T21:33:34.502Z,6.03
2023-01-05T21:36:01.235Z,5.93
2023-01-05T21:39:02.156Z,5.63
2023-01-05T21:41:14.436Z,6.40
2023-01-05T21:43:41.289Z,6.30
2023-01-05T21:46:11.929Z,6.13
2023-01-05T21:48:39.083Z,6.00
2023-01-05T21:51:25.219Z,5.33
2023-01-05T21:54:10.445Z,5.60
2023-01-05T21:56:39.741Z,6.03
2023-01-05T21:59:10.581Z,5.83
2023-01-05T22:01:38.875Z,5.63
2023-01-05T22:04:05.927Z,6.10
2023-01-05T22:06:32.730Z,5.63
2023-01-05T22:08:59.861Z,5.97
2023-01-05T22:11:26.756Z,6.70
2023-01-05T22:13:53.519Z,6.33
2023-01-05T22:16:20.209Z,7.03
2023-01-05T22:18:46.837Z,6.73
2023-01-05T22:21:14.934Z,7.30
2023-01-05T22:23:41.432Z,6.90
2023-01-05T22:26:14.105Z,7.90
2023-01-05T22:28:42.072Z,7.73
2023-01-05T22:31:20.301Z,7.87
2023-01-05T22:33:49.635Z,8.00
2023-01-05T22:36:17.656Z,9.13
2023-01-05T22:38:45.423Z,5.27
2023-01-05T22:41:14.628Z,3.70
2023-01-05T22:43:42.457Z,3.30
2023-01-05T22:46:20.844Z,3.50
2023-01-05T22:48:51.180Z,3.70
2023-01-05T22:51:20.629Z,3.37
2023-01-05T22:53:47.879Z,3.73
2023-01-05T22:56:15.637Z,3.13
2023-01-05T22:58:42.796Z,3.10
2023-01-05T23:01:10.572Z,3.20
2023-01-05T23:03:37.272Z,3.10
2023-01-05T23:06:04.595Z,3.20
2023-01-05T23:08:31.856Z,3.37
2023-01-05T23:11:00.383Z,3.90
2023-01-05T23:13:27.307Z,3.90
2023-01-05T23:15:55.471Z,4.20
2023-01-05T23:18:22.798Z,4.63
2023-01-05T23:20:58.588Z,4.93
2023-01-05T23:23:25.737Z,5.67
2023-01-05T23:25:52.629Z,6.30
2023-01-05T23:28:20.981Z,7.17
2023-01-05T23:30:52.440Z,8.10
2023-01-05T23:33:21.217Z,9.23
2023-01-05T23:35:50.770Z,9.70
2023-01-05T23:38:17.719Z,9.37
2023-01-05T23:40:49.618Z,9.87
2023-01-05T23:43:18.137Z,9.30
2023-01-05T23:45:45.059Z,9.77
2023-01-05T23:48:12.482Z,8.50
2023-01-05T23:50:46.655Z,7.87
2023-01-05T23:53:13.678Z,7.73
2023-01-05T23:55:40.920Z,7.67
2023-01-05T23:58:08.318Z,7.07
